Time;durP1;ratioP1;P1;durP2;ratioP2;P2;SDS_P1;SDS_P2;PMS_P1;PMS_P2;Temp;Humidity;BMP_temperature;BMP_pressure;BME280_temperature;BME280_humidity;BME280_pressure;Samples;Min_cycle;Max_cycle;Signal;HPM_P1;HPM_P2
2022/06/16 00:01:53;;;;;;;0.43;0.15;;;13.40;99.90;;;;;;5071482;28;20048;-77
2022/06/16 00:04:22;;;;;;;0.20;0.10;;;13.30;99.90;;;;;;5087553;28;20051;-77
2022/06/16 00:06:49;;;;;;;0.30;0.28;;;13.20;99.90;;;;;;5071632;28;20040;-78
2022/06/16 00:09:15;;;;;;;0.20;0.20;;;13.20;99.90;;;;;;5087655;28;20109;-78
2022/06/16 00:11:42;;;;;;;0.38;0.15;;;13.10;99.90;;;;;;5087936;28;20040;-77
2022/06/16 00:14:10;;;;;;;0.03;0.03;;;13.10;99.90;;;;;;5071002;28;20071;-78
2022/06/16 00:16:36;;;;;;;0.17;0.17;;;13.00;99.90;;;;;;5071483;28;20040;-77
2022/06/16 00:19:03;;;;;;;0.10;0.10;;;13.00;99.90;;;;;;5088469;28;20033;-78
2022/06/16 00:21:30;;;;;;;0.10;0.10;;;13.00;99.90;;;;;;5087506;28;20409;-78
2022/06/16 00:23:56;;;;;;;0.10;0.10;;;13.00;99.90;;;;;;5071571;28;20102;-78
2022/06/16 00:26:25;;;;;;;0.20;0.20;;;12.90;99.90;;;;;;5071054;28;20448;-78
2022/06/16 00:28:52;;;;;;;0.10;0.10;;;12.90;99.90;;;;;;5088026;28;20041;-79
2022/06/16 00:31:22;;;;;;;0.10;0.10;;;12.80;99.90;;;;;;5087768;28;20552;-77
2022/06/16 00:33:50;;;;;;;0.08;0.08;;;12.80;99.90;;;;;;5071198;28;20058;-79
2022/06/16 00:36:17;;;;;;;0.17;0.10;;;12.80;99.90;;;;;;5070820;28;20040;-77
2022/06/16 00:38:44;;;;;;;0.40;0.25;;;12.80;99.90;;;;;;5071216;28;20039;-77
2022/06/16 00:41:12;;;;;;;0.10;0.10;;;12.80;99.90;;;;;;5087679;28;20040;-78
2022/06/16 00:43:39;;;;;;;0.30;0.20;;;12.80;99.90;;;;;;5070969;28;20076;-77
2022/06/16 00:46:12;;;;;;;0.17;0.17;;;12.80;99.90;;;;;;5087653;28;20050;-79
2022/06/16 00:48:44;;;;;;;0.10;0.10;;;12.80;99.90;;;;;;5088011;28;20036;-78
2022/06/16 00:51:21;;;;;;;0.20;0.20;;;12.80;99.90;;;;;;5088019;28;20091;-77
2022/06/16 00:53:48;;;;;;;0.10;0.10;;;12.80;99.90;;;;;;5071418;28;20040;-77
2022/06/16 00:56:18;;;;;;;0.20;0.20;;;12.80;99.90;;;;;;5086873;28;20131;-78
2022/06/16 00:58:48;;;;;;;0.20;0.13;;;12.90;99.90;;;;;;5071049;28;20044;-79
2022/06/16 01:01:20;;;;;;;0.43;0.20;;;12.80;99.90;;;;;;5089363;28;20044;-77
2022/06/16 01:06:33;;;;;;;0.13;0.10;;;12.80;99.90;;;;;;5107442;28;20566;-77
2022/06/16 01:09:19;;;;;;;0.13;0.13;;;12.80;99.90;;;;;;5091254;28;20040;-79
2022/06/16 01:14:49;;;;;;;;;;;12.70;99.90;;;;;;5091461;28;20285;-79
2022/06/16 01:17:33;;;;;;;0.10;0.10;;;12.70;99.90;;;;;;5074244;28;19920;-78
2022/06/16 01:20:30;;;;;;;0.10;0.10;;;12.70;99.90;;;;;;5091507;28;20044;-78
2022/06/16 01:23:15;;;;;;;0.40;0.28;;;12.70;99.90;;;;;;5074334;28;20036;-77
2022/06/16 01:25:54;;;;;;;0.10;0.10;;;12.70;99.90;;;;;;5074183;28;20037;-77
2022/06/16 01:28:24;;;;;;;0.10;0.10;;;12.70;99.90;;;;;;5090381;28;20477;-77
2022/06/16 01:31:01;;;;;;;0.20;0.20;;;12.70;99.90;;;;;;5074272;28;20080;-77
2022/06/16 01:33:57;;;;;;;0.10;0.10;;;12.60;99.90;;;;;;5074040;28;20128;-77
2022/06/16 01:36:35;;;;;;;;;;;12.60;99.90;;;;;;5074049;28;20045;-79
2022/06/16 01:39:16;;;;;;;0.13;0.13;;;12.50;99.90;;;;;;5090849;28;20003;-79
2022/06/16 01:41:56;;;;;;;0.10;0.10;;;12.50;99.90;;;;;;5073665;28;20473;-77
2022/06/16 01:44:29;;;;;;;0.10;0.10;;;12.40;99.90;;;;;;5090758;28;20164;-78
2022/06/16 01:47:00;;;;;;;0.10;0.10;;;12.40;99.90;;;;;;5073900;28;20032;-79
2022/06/16 01:49:40;;;;;;;0.00;0.00;;;12.40;99.90;;;;;;5090152;28;20452;-78
2022/06/16 01:52:11;;;;;;;0.10;0.10;;;12.30;99.90;;;;;;5074016;28;20085;-78
2022/06/16 01:54:43;;;;;;;0.10;0.10;;;12.30;99.90;;;;;;5073201;28;20043;-77
2022/06/16 01:57:17;;;;;;;0.22;0.22;;;12.20;99.90;;;;;;5090790;28;20048;-77
2022/06/16 01:59:50;;;;;;;0.15;0.15;;;12.20;99.90;;;;;;5073286;28;20040;-77
2022/06/16 02:02:19;;;;;;;0.22;0.20;;;12.20;99.90;;;;;;5073554;28;20505;-79
2022/06/16 02:04:56;;;;;;;0.10;0.10;;;12.20;99.90;;;;;;5073472;28;20040;-77
2022/06/16 02:07:36;;;;;;;0.10;0.10;;;12.20;99.90;;;;;;5072439;28;20036;-78
2022/06/16 02:10:28;;;;;;;0.10;0.10;;;12.20;99.90;;;;;;5073513;28;20044;-77
2022/06/16 02:12:58;;;;;;;0.00;0.00;;;12.30;99.90;;;;;;5089240;28;20048;-77
2022/06/16 02:15:43;;;;;;;0.03;0.03;;;12.20;99.90;;;;;;5089403;28;20098;-77
2022/06/16 02:18:13;;;;;;;0.10;0.10;;;12.30;99.90;;;;;;5086514;28;20048;-77
2022/06/16 02:21:16;;;;;;;0.10;0.10;;;12.30;99.90;;;;;;5069389;28;20133;-78
2022/06/16 02:23:44;;;;;;;0.10;0.10;;;12.40;99.90;;;;;;5032652;28;20518;-78
2022/06/16 02:26:12;;;;;;;0.38;0.20;;;12.40;99.90;;;;;;5088171;28;20059;-78
2022/06/16 02:28:46;;;;;;;0.00;0.00;;;12.40;99.90;;;;;;5089309;28;20489;-77
2022/06/16 02:31:16;;;;;;;0.25;0.20;;;12.50;99.90;;;;;;5089694;28;20152;-78
2022/06/16 02:33:58;;;;;;;0.08;0.08;;;12.50;99.90;;;;;;5089643;28;20051;-77
2022/06/16 02:36:42;;;;;;;0.20;0.10;;;12.50;99.90;;;;;;5089185;28;20099;-78
2022/06/16 02:39:58;;;;;;;0.10;0.10;;;12.50;99.90;;;;;;5086334;28;20045;-78
2022/06/16 02:42:43;;;;;;;0.10;0.10;;;12.50;99.90;;;;;;5053087;28;20041;-77
2022/06/16 02:45:18;;;;;;;0.20;0.20;;;12.60;99.90;;;;;;5053162;28;20040;-77
2022/06/16 02:48:06;;;;;;;;;;;12.60;99.90;;;;;;5059069;28;20055;-77
2022/06/16 02:51:03;;;;;;;0.15;0.15;;;12.50;99.90;;;;;;5088958;28;19920;-77
2022/06/16 02:56:34;;;;;;;0.10;0.10;;;12.50;99.90;;;;;;5088345;28;20048;-78
2022/06/16 02:59:07;;;;;;;0.10;0.10;;;12.60;99.90;;;;;;5088492;28;20044;-78
2022/06/16 03:01:34;;;;;;;0.13;0.10;;;12.60;99.90;;;;;;5088421;28;20044;-77
2022/06/16 03:04:14;;;;;;;0.25;0.13;;;12.60;99.90;;;;;;5071989;28;20043;-77
2022/06/16 03:06:42;;;;;;;0.10;0.10;;;12.60;99.90;;;;;;5071950;28;20127;-77
2022/06/16 03:09:10;;;;;;;0.20;0.10;;;12.60;99.90;;;;;;5088358;28;20878;-79
2022/06/16 03:11:37;;;;;;;0.20;0.20;;;12.60;99.90;;;;;;5055799;28;20051;-79
2022/06/16 03:14:04;;;;;;;0.10;0.10;;;12.60;99.90;;;;;;5072160;28;20412;-79
2022/06/16 03:16:31;;;;;;;0.10;0.10;;;12.50;99.90;;;;;;5071971;28;20071;-79
2022/06/16 03:18:58;;;;;;;0.20;0.17;;;12.50;99.90;;;;;;5088284;28;20028;-79
2022/06/16 03:21:25;;;;;;;0.10;0.10;;;12.50;99.90;;;;;;5072121;28;20044;-78
2022/06/16 03:23:52;;;;;;;0.10;0.10;;;12.50;99.90;;;;;;5088255;28;20036;-77
2022/06/16 03:26:18;;;;;;;0.08;0.05;;;12.50;99.90;;;;;;5088785;28;20448;-77
2022/06/16 03:28:45;;;;;;;0.10;0.10;;;12.40;99.90;;;;;;5072064;28;20037;-77
2022/06/16 03:31:12;;;;;;;0.10;0.10;;;12.40;99.90;;;;;;5072116;28;20048;-77
2022/06/16 03:33:39;;;;;;;0.08;0.08;;;12.40;99.90;;;;;;5071425;28;20646;-79
2022/06/16 03:36:05;;;;;;;0.10;0.10;;;12.40;99.90;;;;;;5072079;28;20079;-77
2022/06/16 03:40:59;;;;;;;0.08;0.08;;;12.40;99.90;;;;;;5071771;28;20046;-78
2022/06/16 03:43:25;;;;;;;0.15;0.15;;;12.50;99.90;;;;;;5088530;28;20036;-77
2022/06/16 03:45:52;;;;;;;0.20;0.17;;;12.60;99.90;;;;;;5071185;28;20047;-77
2022/06/16 03:48:19;;;;;;;0.10;0.10;;;12.60;99.90;;;;;;5088427;28;20036;-79
2022/06/16 03:50:46;;;;;;;0.10;0.10;;;12.60;99.90;;;;;;5087820;28;20098;-79
2022/06/16 03:53:13;;;;;;;0.10;0.10;;;12.70;99.90;;;;;;5071754;28;20083;-78
2022/06/16 03:55:40;;;;;;;0.10;0.10;;;12.70;99.90;;;;;;5087499;28;20057;-77
2022/06/16 03:58:07;;;;;;;0.15;0.10;;;12.70;99.90;;;;;;5088171;28;20044;-79
2022/06/16 04:00:33;;;;;;;0.13;0.10;;;12.70;99.90;;;;;;5071432;28;20101;-79
2022/06/16 04:05:46;;;;;;;0.10;0.10;;;12.70;99.90;;;;;;5088176;28;20048;-78
2022/06/16 04:08:13;;;;;;;0.10;0.10;;;12.80;99.90;;;;;;5071528;28;20121;-77
2022/06/16 04:10:39;;;;;;;0.10;0.10;;;12.80;99.90;;;;;;5088102;28;20040;-77
2022/06/16 04:13:06;;;;;;;0.32;0.10;;;12.80;99.90;;;;;;5071501;28;20451;-77
2022/06/16 04:15:33;;;;;;;0.30;0.20;;;12.90;99.90;;;;;;5087927;28;20485;-78
2022/06/16 04:18:00;;;;;;;0.10;0.10;;;12.90;99.90;;;;;;5087895;28;20060;-78
2022/06/16 04:20:27;;;;;;;0.10;0.10;;;13.10;99.90;;;;;;5071401;28;20405;-77
2022/06/16 04:22:53;;;;;;;0.10;0.10;;;13.10;99.90;;;;;;5070799;28;20036;-78
2022/06/16 04:25:30;;;;;;;0.10;0.10;;;13.20;99.90;;;;;;5055004;28;20040;-79
2022/06/16 04:27:59;;;;;;;0.10;0.10;;;13.20;99.90;;;;;;5070772;28;20080;-77
2022/06/16 04:30:27;;;;;;;0.00;0.00;;;13.30;99.90;;;;;;5071308;28;20413;-77
2022/06/16 04:32:53;;;;;;;0.10;0.10;;;13.30;99.90;;;;;;5087314;28;20037;-78
2022/06/16 04:35:20;;;;;;;0.13;0.13;;;13.30;99.90;;;;;;5088681;28;20482;-79
2022/06/16 04:37:47;;;;;;;0.10;0.10;;;13.30;99.90;;;;;;5074912;28;20386;-77
2022/06/16 04:40:14;;;;;;;0.50;0.15;;;13.40;99.90;;;;;;5069265;28;20041;-79
2022/06/16 04:42:41;;;;;;;0.10;0.10;;;13.40;99.90;;;;;;5082488;28;20048;-78
2022/06/16 04:45:10;;;;;;;0.38;0.22;;;13.40;99.90;;;;;;5066885;28;20131;-79
2022/06/16 04:47:38;;;;;;;0.00;0.00;;;13.50;99.90;;;;;;5066645;28;20124;-77
2022/06/16 04:50:06;;;;;;;0.10;0.10;;;13.50;99.90;;;;;;5063974;28;20504;-78
2022/06/16 04:52:33;;;;;;;0.17;0.17;;;13.50;99.90;;;;;;5091858;28;20123;-77
2022/06/16 04:55:00;;;;;;;0.10;0.10;;;13.50;99.90;;;;;;5065978;28;20132;-77
2022/06/16 04:57:26;;;;;;;0.10;0.10;;;13.60;99.90;;;;;;5083430;28;20403;-77
2022/06/16 04:59:53;;;;;;;0.20;0.20;;;13.60;99.90;;;;;;5063435;28;20435;-79
2022/06/16 05:02:20;;;;;;;0.30;0.20;;;13.60;99.90;;;;;;5078481;28;20175;-78
2022/06/16 05:04:47;;;;;;;0.00;0.00;;;13.70;99.90;;;;;;5074108;28;20063;-78
2022/06/16 05:07:13;;;;;;;0.30;0.30;;;13.80;99.90;;;;;;5074723;28;20516;-77
2022/06/16 05:09:40;;;;;;;0.20;0.20;;;13.80;99.90;;;;;;5058431;28;20051;-79
2022/06/16 05:12:07;;;;;;;0.35;0.20;;;13.80;99.90;;;;;;5074171;28;20045;-79
2022/06/16 05:14:33;;;;;;;0.20;0.10;;;13.80;99.90;;;;;;5090919;28;20048;-77
2022/06/16 05:17:00;;;;;;;0.30;0.10;;;13.90;99.90;;;;;;5091052;28;20051;-77
2022/06/16 05:19:31;;;;;;;0.20;0.13;;;14.00;99.90;;;;;;5074831;28;20516;-79
2022/06/16 05:22:00;;;;;;;0.25;0.20;;;14.00;99.90;;;;;;5091282;28;20047;-79
2022/06/16 05:24:27;;;;;;;0.20;0.10;;;14.00;99.90;;;;;;5090747;28;20055;-77
2022/06/16 05:26:55;;;;;;;0.28;0.20;;;14.10;99.90;;;;;;5090631;28;20086;-79
2022/06/16 05:29:21;;;;;;;0.17;0.10;;;14.10;99.90;;;;;;5091221;28;20118;-79
2022/06/16 05:31:48;;;;;;;0.60;0.32;;;14.20;99.90;;;;;;5073810;28;20041;-79
2022/06/16 05:34:15;;;;;;;0.10;0.10;;;14.30;99.90;;;;;;5073669;28;20047;-78
2022/06/16 05:36:46;;;;;;;0.20;0.20;;;14.40;99.90;;;;;;5090798;28;20119;-78
2022/06/16 05:39:13;;;;;;;0.40;0.40;;;14.50;99.90;;;;;;5073961;28;20101;-79
2022/06/16 05:41:41;;;;;;;0.05;0.05;;;14.70;99.90;;;;;;5090612;28;20404;-78
2022/06/16 05:44:09;;;;;;;0.20;0.20;;;14.80;99.90;;;;;;5073831;28;20374;-77
2022/06/16 05:46:36;;;;;;;0.10;0.10;;;14.90;99.90;;;;;;5073762;28;20139;-78
2022/06/16 05:49:04;;;;;;;0.08;0.08;;;15.00;99.90;;;;;;5073387;28;20132;-78
2022/06/16 05:51:31;;;;;;;0.10;0.10;;;15.10;99.90;;;;;;5073993;28;20040;-77
2022/06/16 05:53:57;;;;;;;0.20;0.20;;;15.10;99.90;;;;;;5089990;28;20055;-77
2022/06/16 05:56:24;;;;;;;0.10;0.10;;;15.10;99.90;;;;;;5090396;28;20057;-79
2022/06/16 05:58:51;;;;;;;0.40;0.28;;;15.10;99.90;;;;;;5073665;28;20527;-78
2022/06/16 06:01:18;;;;;;;0.17;0.17;;;15.10;99.90;;;;;;5057041;28;20032;-78
2022/06/16 06:03:44;;;;;;;0.20;0.10;;;15.10;99.90;;;;;;5090380;28;20098;-77
2022/06/16 06:06:11;;;;;;;0.10;0.10;;;15.20;99.90;;;;;;5089971;28;20052;-77
2022/06/16 06:17:10;;;;;;;0.10;0.10;;;15.30;99.90;;;;;;5106805;28;20436;-80
2022/06/16 06:19:36;;;;;;;0.15;0.10;;;15.40;99.90;;;;;;5064831;28;20033;-80
2022/06/16 06:22:11;;;;;;;0.52;0.30;;;15.50;99.90;;;;;;5067200;28;20029;-78
2022/06/16 06:24:42;;;;;;;0.15;0.15;;;15.50;99.90;;;;;;5082452;28;20041;-78
2022/06/16 06:27:14;;;;;;;0.00;0.00;;;15.50;99.90;;;;;;5084810;28;20032;-78
2022/06/16 06:29:43;;;;;;;0.20;0.20;;;15.70;99.90;;;;;;5066444;28;20033;-79
2022/06/16 06:32:11;;;;;;;0.10;0.10;;;15.80;99.90;;;;;;5065376;28;20505;-78
2022/06/16 06:34:38;;;;;;;0.10;0.10;;;15.90;99.90;;;;;;5084813;28;20047;-78
2022/06/16 06:37:06;;;;;;;1.38;0.30;;;16.00;99.90;;;;;;5060121;28;20112;-78
2022/06/16 06:39:33;;;;;;;0.10;0.05;;;16.10;99.90;;;;;;5059170;28;20241;-79
2022/06/16 06:42:03;;;;;;;0.30;0.15;;;16.20;99.90;;;;;;5077872;28;20072;-78
2022/06/16 06:44:30;;;;;;;0.13;0.13;;;16.20;99.90;;;;;;5074138;28;20037;-79
2022/06/16 06:46:58;;;;;;;0.15;0.15;;;16.40;99.90;;;;;;5056502;28;20492;-78
2022/06/16 06:49:24;;;;;;;0.10;0.08;;;16.50;99.90;;;;;;5058322;28;20041;-80
2022/06/16 06:51:51;;;;;;;0.10;0.10;;;16.50;99.90;;;;;;5064375;28;20094;-79
2022/06/16 06:54:18;;;;;;;0.10;0.10;;;16.60;99.90;;;;;;5067750;28;20045;-80
2022/06/16 06:56:47;;;;;;;0.25;0.13;;;16.60;99.90;;;;;;5071181;28;20052;-80
2022/06/16 06:59:18;;;;;;;0.10;0.10;;;16.70;99.90;;;;;;5071813;28;20037;-78
2022/06/16 07:01:46;;;;;;;0.10;0.10;;;16.70;99.90;;;;;;5085885;28;20116;-76
2022/06/16 07:04:13;;;;;;;0.10;0.10;;;16.80;99.90;;;;;;5083056;28;20044;-77
2022/06/16 07:06:41;;;;;;;0.00;0.00;;;16.80;99.90;;;;;;5070941;28;20048;-77
2022/06/16 07:09:10;;;;;;;0.10;0.05;;;16.90;99.90;;;;;;5071195;28;20048;-77
2022/06/16 07:11:40;;;;;;;0.10;0.10;;;16.90;99.90;;;;;;5087627;28;20055;-77
2022/06/16 07:14:08;;;;;;;0.10;0.10;;;17.00;99.90;;;;;;5087450;28;20052;-77
2022/06/16 07:16:35;;;;;;;1.95;0.30;;;17.00;99.90;;;;;;5071415;28;20127;-77
2022/06/16 07:19:02;;;;;;;0.10;0.10;;;17.10;99.90;;;;;;5066590;28;20413;-76
2022/06/16 07:21:29;;;;;;;0.20;0.20;;;17.20;99.90;;;;;;5079587;28;20044;-79
2022/06/16 07:23:56;;;;;;;0.25;0.10;;;17.30;99.90;;;;;;5082789;28;20044;-78
2022/06/16 07:26:23;;;;;;;0.20;0.10;;;17.30;99.90;;;;;;5076382;28;20421;-78
2022/06/16 07:28:50;;;;;;;0.10;0.10;;;17.40;99.90;;;;;;5053764;28;20033;-77
2022/06/16 07:31:18;;;;;;;0.10;0.10;;;17.50;99.90;;;;;;5074148;28;20036;-77
2022/06/16 07:33:45;;;;;;;0.10;0.10;;;17.60;99.90;;;;;;5080687;28;20044;-78
2022/06/16 07:36:11;;;;;;;0.10;0.10;;;17.60;99.90;;;;;;5076888;28;20393;-79
2022/06/16 07:38:38;;;;;;;0.10;0.10;;;17.70;99.90;;;;;;5051190;28;20040;-79
2022/06/16 07:43:50;;;;;;;0.10;0.10;;;17.90;99.90;;;;;;5077985;28;20044;-78
2022/06/16 07:46:16;;;;;;;0.08;0.08;;;17.90;99.90;;;;;;5076340;28;20052;-78
2022/06/16 07:48:43;;;;;;;0.00;0.00;;;18.00;99.90;;;;;;5071352;28;20508;-78
2022/06/16 07:51:10;;;;;;;0.38;0.10;;;18.10;99.90;;;;;;5086994;28;20036;-77
2022/06/16 07:53:36;;;;;;;0.10;0.10;;;18.20;99.90;;;;;;5082927;28;20049;-77
2022/06/16 07:56:04;;;;;;;0.10;0.00;;;18.30;99.90;;;;;;5050579;28;20462;-77
2022/06/16 07:58:31;;;;;;;0.40;0.20;;;18.40;99.90;;;;;;5074743;28;20036;-78
2022/06/16 08:00:59;;;;;;;0.10;0.10;;;18.40;99.90;;;;;;5076054;28;20113;-79
2022/06/16 08:03:29;;;;;;;0.10;0.10;;;18.50;99.90;;;;;;5080447;28;20045;-78
2022/06/16 08:05:58;;;;;;;0.13;0.10;;;18.50;99.90;;;;;;5087049;28;20500;-78
2022/06/16 08:08:26;;;;;;;0.15;0.10;;;18.60;99.90;;;;;;5107315;28;20048;-78
2022/06/16 08:10:53;;;;;;;0.22;0.15;;;18.70;99.90;;;;;;5087045;28;20044;-78
2022/06/16 08:13:22;;;;;;;0.10;0.00;;;18.60;99.90;;;;;;5099025;28;20493;-78
2022/06/16 08:15:50;;;;;;;0.17;0.10;;;18.70;99.90;;;;;;5081426;28;20160;-78
2022/06/16 08:18:20;;;;;;;0.10;0.10;;;18.80;99.90;;;;;;5097792;28;20047;-78
2022/06/16 08:20:47;;;;;;;0.10;0.10;;;18.80;99.90;;;;;;5103999;28;20047;-78
2022/06/16 08:23:15;;;;;;;0.00;0.00;;;18.80;99.90;;;;;;5056652;28;20121;-78
2022/06/16 08:25:44;;;;;;;0.10;0.10;;;18.90;99.90;;;;;;5070989;28;20040;-79
2022/06/16 08:28:15;;;;;;;0.00;0.00;;;18.90;99.90;;;;;;5067871;28;20513;-78
2022/06/16 08:30:44;;;;;;;0.10;0.00;;;19.10;99.90;;;;;;5102750;28;20049;-77
2022/06/16 08:33:16;;;;;;;0.10;0.10;;;19.20;99.90;;;;;;5083890;28;20105;-78
2022/06/16 08:35:44;;;;;;;0.25;0.20;;;19.20;99.90;;;;;;5086718;28;20527;-78
2022/06/16 08:38:11;;;;;;;0.00;0.00;;;19.30;99.90;;;;;;5069957;28;20087;-78
2022/06/16 08:40:47;;;;;;;0.10;0.10;;;19.30;99.90;;;;;;5087063;28;20133;-78
2022/06/16 08:43:22;;;;;;;0.10;0.10;;;19.40;99.90;;;;;;5085808;28;20448;-78
2022/06/16 08:45:57;;;;;;;0.20;0.20;;;19.50;99.90;;;;;;5087743;28;20056;-78
2022/06/16 08:48:46;;;;;;;0.47;0.20;;;19.50;99.90;;;;;;5088689;28;20040;-78
2022/06/16 08:51:19;;;;;;;0.30;0.20;;;19.70;99.90;;;;;;5086344;28;20437;-78
2022/06/16 08:54:21;;;;;;;0.20;0.20;;;19.80;99.90;;;;;;5067168;28;20045;-79
2022/06/16 08:56:58;;;;;;;0.30;0.30;;;19.90;99.90;;;;;;5049846;28;20052;-78
2022/06/16 08:59:48;;;;;;;0.45;0.30;;;20.00;99.90;;;;;;5094479;28;20093;-78
2022/06/16 09:02:28;;;;;;;0.32;0.32;;;20.00;98.90;;;;;;5082077;28;20049;-78
2022/06/16 09:05:19;;;;;;;0.30;0.20;;;20.00;99.70;;;;;;5082700;28;20040;-77
2022/06/16 09:07:58;;;;;;;0.30;0.30;;;20.20;99.00;;;;;;5082806;28;20486;-78
2022/06/16 09:10:54;;;;;;;0.20;0.20;;;20.30;99.60;;;;;;5082359;28;20041;-77
2022/06/16 09:13:38;;;;;;;0.13;0.13;;;20.40;99.60;;;;;;5082854;28;20057;-77
2022/06/16 09:16:22;;;;;;;0.20;0.13;;;20.50;99.10;;;;;;5083064;28;20060;-77
2022/06/16 09:19:07;;;;;;;0.20;0.20;;;20.50;98.00;;;;;;5082573;28;20387;-78
2022/06/16 09:21:49;;;;;;;0.10;0.10;;;20.60;97.70;;;;;;5067016;28;20068;-78
2022/06/16 09:24:43;;;;;;;0.52;0.35;;;20.70;97.90;;;;;;5085843;28;20383;-78
2022/06/16 09:27:20;;;;;;;0.40;0.35;;;20.80;96.70;;;;;;5069624;28;20045;-78
2022/06/16 09:29:56;;;;;;;0.43;0.38;;;20.80;97.60;;;;;;5080771;28;20121;-78
2022/06/16 09:32:33;;;;;;;0.20;0.20;;;20.90;97.90;;;;;;5077789;28;20045;-78
2022/06/16 09:35:00;;;;;;;0.38;0.20;;;20.90;97.40;;;;;;5076295;28;20068;-78
2022/06/16 09:37:43;;;;;;;0.20;0.20;;;21.00;98.20;;;;;;5077733;28;20079;-78
2022/06/16 09:40:20;;;;;;;0.10;0.10;;;21.00;97.00;;;;;;5065731;28;20040;-77
2022/06/16 09:42:56;;;;;;;0.15;0.15;;;21.00;97.50;;;;;;5079542;28;20036;-77
2022/06/16 09:45:35;;;;;;;0.32;0.20;;;21.00;97.70;;;;;;5060843;28;20041;-78
2022/06/16 09:48:08;;;;;;;0.20;0.20;;;21.10;95.30;;;;;;5066476;28;20517;-78
2022/06/16 09:51:00;;;;;;;1.13;0.17;;;21.10;97.30;;;;;;5083214;28;20517;-79
2022/06/16 09:53:42;;;;;;;0.20;0.20;;;21.20;95.60;;;;;;5071691;28;20478;-77
2022/06/16 09:56:34;;;;;;;0.20;0.10;;;21.50;96.60;;;;;;5068530;28;20052;-79
2022/06/16 09:59:24;;;;;;;0.32;0.20;;;21.50;95.50;;;;;;5084510;28;20041;-79
2022/06/16 10:02:34;;;;;;;0.20;0.20;;;21.60;94.00;;;;;;5069717;28;20045;-78
2022/06/16 10:05:01;;;;;;;0.20;0.20;;;21.90;95.90;;;;;;5081728;28;20111;-79
2022/06/16 10:07:41;;;;;;;0.55;0.30;;;21.80;94.20;;;;;;5075298;28;20032;-79
2022/06/16 10:10:49;;;;;;;1.50;0.60;;;21.90;93.50;;;;;;5065237;28;20036;-80
2022/06/16 10:13:27;;;;;;;0.38;0.30;;;21.90;92.80;;;;;;5081843;28;20053;-78
2022/06/16 10:16:03;;;;;;;0.50;0.30;;;22.10;93.60;;;;;;5064664;28;20052;-78
2022/06/16 10:18:30;;;;;;;0.43;0.43;;;22.20;93.10;;;;;;5081986;28;20037;-79
2022/06/16 10:20:57;;;;;;;0.10;0.10;;;22.30;93.10;;;;;;5061079;28;20838;-81
2022/06/16 10:23:32;;;;;;;0.35;0.20;;;22.30;91.00;;;;;;5077086;28;20068;-77
2022/06/16 10:26:03;;;;;;;0.20;0.20;;;22.30;92.00;;;;;;5068094;28;20068;-81
2022/06/16 10:28:33;;;;;;;0.40;0.30;;;22.50;92.60;;;;;;5069036;28;20151;-77
2022/06/16 10:31:02;;;;;;;0.40;0.25;;;22.60;91.10;;;;;;5085571;28;20545;-77
2022/06/16 10:33:33;;;;;;;0.30;0.30;;;22.70;92.70;;;;;;5067441;28;20045;-80
2022/06/16 10:36:18;;;;;;;1.05;0.60;;;22.70;91.80;;;;;;5085263;28;20052;-80
2022/06/16 10:39:04;;;;;;;0.30;0.30;;;22.60;91.30;;;;;;5085268;28;20035;-81
2022/06/16 10:41:40;;;;;;;0.82;0.30;;;22.50;91.80;;;;;;5048503;28;20041;-80
2022/06/16 10:44:14;;;;;;;0.25;0.25;;;22.60;91.30;;;;;;5076939;28;20037;-78
2022/06/16 10:46:55;;;;;;;0.25;0.25;;;22.80;92.10;;;;;;5068812;28;20076;-80
2022/06/16 10:49:33;;;;;;;0.30;0.20;;;22.80;90.80;;;;;;5101703;28;20045;-80
2022/06/16 10:52:26;;;;;;;0.20;0.20;;;22.90;91.30;;;;;;5069144;28;20136;-79
2022/06/16 10:55:01;;;;;;;0.40;0.30;;;22.90;90.20;;;;;;5070287;28;20052;-80
2022/06/16 10:57:40;;;;;;;0.35;0.25;;;22.90;90.80;;;;;;5105995;28;20106;-80
2022/06/16 11:00:14;;;;;;;0.25;0.25;;;22.90;89.10;;;;;;5071193;28;20469;-78
2022/06/16 11:02:59;;;;;;;0.30;0.30;;;22.80;87.10;;;;;;5062112;28;20037;-80
2022/06/16 11:05:37;;;;;;;0.65;0.38;;;22.80;84.50;;;;;;5072564;28;20062;-79
2022/06/16 11:08:06;;;;;;;0.55;0.43;;;22.80;89.00;;;;;;5063825;28;20045;-79
2022/06/16 11:10:36;;;;;;;0.57;0.35;;;22.90;88.00;;;;;;5103213;28;20052;-79
2022/06/16 11:13:04;;;;;;;0.52;0.40;;;22.90;90.70;;;;;;5064421;28;20032;-79
2022/06/16 11:15:35;;;;;;;0.30;0.30;;;23.10;90.30;;;;;;5069165;28;20037;-80
2022/06/16 11:18:06;;;;;;;0.40;0.28;;;23.20;89.90;;;;;;5080106;28;20041;-78
2022/06/16 11:20:39;;;;;;;0.20;0.20;;;23.20;87.40;;;;;;5088770;28;20048;-79
2022/06/16 11:23:29;;;;;;;0.30;0.30;;;23.30;88.40;;;;;;5071846;28;20048;-79
2022/06/16 11:26:14;;;;;;;0.30;0.30;;;23.30;85.10;;;;;;5087689;28;20077;-80
2022/06/16 11:28:46;;;;;;;0.35;0.28;;;23.40;86.50;;;;;;5088392;28;20037;-78
2022/06/16 11:31:23;;;;;;;0.50;0.50;;;23.40;86.00;;;;;;5071038;28;20086;-78
2022/06/16 11:34:12;;;;;;;0.40;0.40;;;23.40;86.20;;;;;;5072010;28;20044;-79
2022/06/16 11:37:00;;;;;;;0.77;0.50;;;23.40;85.50;;;;;;5071701;28;20072;-78
2022/06/16 11:39:42;;;;;;;0.55;0.55;;;23.40;82.40;;;;;;5071563;28;20045;-79
2022/06/16 11:42:51;;;;;;;0.43;0.40;;;23.40;85.30;;;;;;5085416;28;20888;-80
2022/06/16 11:45:23;;;;;;;0.25;0.25;;;23.40;87.80;;;;;;5073152;28;20175;-78
2022/06/16 11:48:05;;;;;;;0.35;0.35;;;23.40;87.10;;;;;;5069511;28;20127;-80
2022/06/16 11:50:49;;;;;;;0.40;0.40;;;23.50;87.90;;;;;;5078671;28;20037;-78
2022/06/16 11:53:41;;;;;;;0.40;0.40;;;23.50;87.10;;;;;;5088072;28;20632;-79
2022/06/16 11:56:30;;;;;;;0.30;0.30;;;23.70;88.20;;;;;;5038877;28;20048;-80
2022/06/16 11:59:03;;;;;;;0.65;0.40;;;23.70;87.60;;;;;;5096696;28;20519;-78
2022/06/16 12:01:46;;;;;;;0.45;0.40;;;23.70;87.00;;;;;;5064001;28;20126;-78
2022/06/16 12:04:27;;;;;;;0.88;0.68;;;23.70;87.40;;;;;;5074387;28;20079;-80
2022/06/16 12:07:28;;;;;;;0.47;0.40;;;23.70;86.70;;;;;;5066129;28;20051;-78
2022/06/16 12:10:33;;;;;;;0.52;0.50;;;23.70;87.70;;;;;;5083847;28;20497;-80
2022/06/16 12:13:08;;;;;;;2.55;0.50;;;23.90;86.90;;;;;;5110115;28;20037;-78
2022/06/16 12:15:44;;;;;;;0.47;0.47;;;23.80;84.90;;;;;;5082258;28;20098;-80
2022/06/16 12:18:35;;;;;;;0.65;0.52;;;23.70;85.30;;;;;;5062251;28;20067;-78
2022/06/16 12:21:10;;;;;;;0.50;0.50;;;23.80;86.80;;;;;;5066462;28;20073;-78
2022/06/16 12:23:50;;;;;;;0.68;0.55;;;23.80;85.70;;;;;;5062754;28;20033;-79
2022/06/16 12:26:24;;;;;;;0.70;0.52;;;23.80;85.10;;;;;;5093816;28;20040;-79
2022/06/16 12:29:13;;;;;;;0.50;0.50;;;23.80;88.00;;;;;;5086516;28;20036;-80
2022/06/16 12:31:59;;;;;;;1.08;0.70;;;23.70;86.90;;;;;;5067902;28;20056;-81
2022/06/16 12:34:35;;;;;;;0.47;0.40;;;23.90;87.60;;;;;;5044811;28;20063;-79
2022/06/16 12:37:11;;;;;;;0.30;0.30;;;23.90;87.20;;;;;;5088252;28;20390;-78
2022/06/16 12:39:56;;;;;;;0.28;0.22;;;23.90;87.40;;;;;;5082984;28;20036;-79
2022/06/16 12:42:27;;;;;;;0.65;0.50;;;23.70;86.80;;;;;;5091526;28;20101;-79
2022/06/16 12:45:17;;;;;;;0.40;0.40;;;23.80;87.00;;;;;;5082756;28;20044;-79
2022/06/16 12:48:09;;;;;;;0.50;0.40;;;23.90;88.50;;;;;;5073413;28;20076;-80
2022/06/16 12:50:48;;;;;;;0.47;0.40;;;23.90;87.50;;;;;;5074847;28;20156;-80
2022/06/16 12:53:18;;;;;;;0.40;0.40;;;23.70;87.50;;;;;;5060126;28;20041;-79
2022/06/16 12:55:53;;;;;;;1.35;0.55;;;23.70;87.50;;;;;;5078685;28;20159;-78
2022/06/16 12:58:29;;;;;;;0.85;0.65;;;23.70;86.80;;;;;;5082891;28;20820;-79
2022/06/16 13:01:03;;;;;;;1.02;0.50;;;23.70;87.80;;;;;;5090049;28;20044;-78
2022/06/16 13:03:41;;;;;;;0.47;0.43;;;23.70;88.10;;;;;;5062054;28;20123;-78
2022/06/16 13:06:09;;;;;;;0.30;0.30;;;23.70;87.80;;;;;;5091783;28;20149;-78
2022/06/16 13:08:43;;;;;;;1.20;0.70;;;23.80;89.40;;;;;;5073897;28;20040;-78
2022/06/16 13:11:20;;;;;;;0.43;0.40;;;23.80;89.20;;;;;;5083899;28;20097;-78
2022/06/16 13:13:54;;;;;;;0.52;0.50;;;23.90;89.00;;;;;;5064116;28;20805;-79
2022/06/16 13:16:26;;;;;;;0.95;0.60;;;23.80;89.00;;;;;;5068588;28;20036;-78
2022/06/16 13:18:59;;;;;;;1.23;0.70;;;23.70;87.20;;;;;;5083504;28;20041;-78
2022/06/16 13:21:34;;;;;;;0.95;0.52;;;23.70;87.20;;;;;;5079121;28;20044;-78
2022/06/16 13:24:09;;;;;;;;;;;23.70;88.20;;;;;;5091427;28;20062;-78
2022/06/16 13:26:42;;;;;;;0.40;0.40;;;23.70;87.00;;;;;;5090263;28;19949;-78
2022/06/16 13:29:18;;;;;;;0.38;0.30;;;23.70;87.10;;;;;;5090455;28;20067;-78
2022/06/16 13:31:48;;;;;;;0.52;0.45;;;23.70;86.60;;;;;;5090329;28;20158;-78
2022/06/16 13:34:19;;;;;;;0.57;0.40;;;23.70;86.40;;;;;;5068799;28;20489;-81
2022/06/16 13:36:54;;;;;;;0.77;0.40;;;23.60;85.70;;;;;;5074573;28;20079;-80
2022/06/16 13:39:39;;;;;;;;;;;23.50;87.30;;;;;;5091379;28;20374;-80
2022/06/16 13:42:17;;;;;;;0.37;0.37;;;23.60;85.40;;;;;;5074023;28;20007;-80
2022/06/16 13:45:23;;;;;;;0.70;0.60;;;23.50;85.00;;;;;;5073733;28;20047;-80
2022/06/16 13:48:16;;;;;;;0.85;0.50;;;23.50;86.10;;;;;;5074060;28;20076;-81